createdAt,value
2018-09-09T00:04:53.396Z,5.17
2018-09-09T00:09:56.627Z,5.00
2018-09-09T00:14:54.774Z,5.47
2018-09-09T00:19:52.171Z,5.20
2018-09-09T00:24:49.671Z,5.70
2018-09-09T00:29:47.063Z,5.00
2018-09-09T00:34:44.472Z,5.97
2018-09-09T00:39:52.155Z,6.30
2018-09-09T00:44:49.551Z,6.20
2018-09-09T00:49:53.359Z,6.20
2018-09-09T00:54:50.732Z,5.70
2018-09-09T00:59:48.106Z,6.00
2018-09-09T01:04:45.567Z,6.30
2018-09-09T01:09:55.736Z,5.60
2018-09-09T01:14:53.117Z,6.10
2018-09-09T01:19:50.487Z,5.30
2018-09-09T01:24:47.858Z,6.50
2018-09-09T01:29:45.243Z,6.13
2018-09-09T01:34:42.662Z,7.33
2018-09-09T01:39:50.070Z,6.03
2018-09-09T01:44:47.439Z,7.07
2018-09-09T01:49:44.923Z,7.30
2018-09-09T01:54:42.347Z,6.23
2018-09-09T01:59:39.719Z,6.27
2018-09-09T02:04:37.142Z,7.03
2018-09-09T02:09:44.718Z,6.33
2018-09-09T02:14:42.174Z,5.80
2018-09-09T02:19:39.583Z,5.97
2018-09-09T02:24:36.963Z,5.80
2018-09-09T02:29:34.623Z,5.80
2018-09-09T02:34:31.995Z,6.83
2018-09-09T02:39:36.149Z,6.17
2018-09-09T02:44:33.778Z,6.07
2018-09-09T02:49:31.152Z,6.00
2018-09-09T02:54:28.531Z,6.33
2018-09-09T02:59:25.926Z,6.20
2018-09-09T03:04:23.316Z,5.97
2018-09-09T03:09:29.695Z,4.40
2018-09-09T03:14:27.292Z,6.30
2018-09-09T03:19:24.685Z,5.73
2018-09-09T03:24:22.072Z,6.33
2018-09-09T03:29:19.447Z,5.87
2018-09-09T03:34:16.832Z,6.50
2018-09-09T03:39:24.857Z,5.80
2018-09-09T03:44:22.328Z,5.20
2018-09-09T03:49:19.711Z,6.63
2018-09-09T03:54:17.395Z,6.00
2018-09-09T03:59:14.778Z,5.90
2018-09-09T04:04:12.160Z,5.73
2018-09-09T04:09:13.393Z,5.70
2018-09-09T04:14:10.896Z,5.77
2018-09-09T04:19:08.249Z,6.50
2018-09-09T04:24:06.591Z,6.27
2018-09-09T04:29:03.993Z,6.20
2018-09-09T04:34:01.412Z,5.67
2018-09-09T04:38:58.839Z,5.30
2018-09-09T04:43:56.380Z,5.90
2018-09-09T04:48:53.804Z,5.30
2018-09-09T04:53:51.261Z,5.67
2018-09-09T04:58:49.355Z,6.57
2018-09-09T05:03:47.694Z,6.57
2018-09-09T05:08:45.204Z,6.93
2018-09-09T05:13:42.586Z,6.00
2018-09-09T05:18:40.203Z,5.20
2018-09-09T05:23:37.610Z,6.17
2018-09-09T05:28:34.999Z,5.63
2018-09-09T05:33:32.471Z,6.00
2018-09-09T05:38:29.851Z,5.87
2018-09-09T05:43:27.339Z,6.27
2018-09-09T05:48:24.776Z,5.40
2018-09-09T05:53:22.210Z,6.00
2018-09-09T05:58:20.079Z,5.40
2018-09-09T06:03:18.105Z,5.83
2018-09-09T06:08:16.142Z,4.53
2018-09-09T06:13:13.563Z,5.17
2018-09-09T06:18:11.031Z,6.13
2018-09-09T06:23:08.439Z,5.30
2018-09-09T06:28:05.823Z,5.13
2018-09-09T06:33:03.210Z,5.47
2018-09-09T06:38:00.591Z,5.50
2018-09-09T06:42:57.994Z,5.47
2018-09-09T06:47:55.411Z,4.80
2018-09-09T06:52:52.831Z,5.53
2018-09-09T06:57:50.235Z,6.17
2018-09-09T07:02:47.619Z,5.20
2018-09-09T07:07:45.055Z,5.13
2018-09-09T07:12:42.531Z,5.80
2018-09-09T07:17:39.934Z,5.97
2018-09-09T07:22:37.402Z,6.20
2018-09-09T07:27:34.763Z,5.90
2018-09-09T07:32:32.153Z,5.33
2018-09-09T07:37:29.560Z,6.23
2018-09-09T07:42:26.963Z,5.80
2018-09-09T07:47:24.373Z,5.87
2018-09-09T07:52:22.599Z,6.47
2018-09-09T07:57:20.024Z,6.13
2018-09-09T08:02:17.435Z,6.30
2018-09-09T08:07:14.834Z,6.63
2018-09-09T08:12:12.384Z,5.80
2018-09-09T08:17:10.210Z,5.87
2018-09-09T08:22:07.652Z,6.00
2018-09-09T08:27:05.147Z,5.70
2018-09-09T08:32:03.495Z,6.00
2018-09-09T08:37:00.911Z,5.87
2018-09-09T08:41:58.401Z,3.60
2018-09-09T08:46:55.795Z,4.33
2018-09-09T08:51:53.273Z,3.03
2018-09-09T08:56:50.662Z,3.90
2018-09-09T09:01:48.062Z,3.70
2018-09-09T09:06:45.471Z,3.73
2018-09-09T09:11:42.924Z,2.90
2018-09-09T09:16:40.319Z,2.57
2018-09-09T09:21:37.727Z,2.20
2018-09-09T09:26:35.330Z,2.10
2018-09-09T09:31:32.831Z,1.60
2018-09-09T09:36:30.224Z,1.70
2018-09-09T09:41:27.670Z,2.23
2018-09-09T09:46:25.093Z,2.20
2018-09-09T09:51:22.528Z,1.80
2018-09-09T09:56:19.915Z,1.50
2018-09-09T10:01:17.366Z,1.40
2018-09-09T10:06:14.768Z,2.40
2018-09-09T10:11:12.190Z,2.00
2018-09-09T10:16:09.602Z,2.53
2018-09-09T10:21:07.014Z,1.70
2018-09-09T10:26:04.387Z,1.83
2018-09-09T10:31:01.770Z,1.60
2018-09-09T10:35:59.192Z,1.47
2018-09-09T10:40:56.613Z,1.47
2018-09-09T10:45:54.043Z,1.57
2018-09-09T10:50:51.450Z,2.60
2018-09-09T10:55:48.939Z,2.60
2018-09-09T11:00:46.400Z,3.50
2018-09-09T11:05:43.798Z,4.43
2018-09-09T11:10:41.288Z,2.30
2018-09-09T11:15:38.742Z,2.07
2018-09-09T11:20:36.167Z,1.70
2018-09-09T11:25:33.625Z,2.03
2018-09-09T11:30:31.005Z,1.77
2018-09-09T11:35:28.669Z,1.53
2018-09-09T11:40:26.645Z,1.60
2018-09-09T11:45:24.040Z,1.77
2018-09-09T11:50:21.455Z,1.60
2018-09-09T11:55:18.886Z,2.40
2018-09-09T12:00:16.390Z,1.53
2018-09-09T12:05:13.828Z,1.00
2018-09-09T12:10:12.329Z,1.27
2018-09-09T12:15:09.786Z,1.50
2018-09-09T12:20:07.199Z,1.10
2018-09-09T12:25:04.619Z,1.20
2018-09-09T12:30:02.065Z,1.20
2018-09-09T12:34:59.465Z,1.37
2018-09-09T12:39:58.070Z,1.53
2018-09-09T12:45:01.127Z,1.33
2018-09-09T12:49:58.516Z,0.83
2018-09-09T12:54:55.917Z,1.47
2018-09-09T12:59:53.376Z,1.20
2018-09-09T13:04:50.779Z,1.30
2018-09-09T13:09:50.898Z,1.60
2018-09-09T13:14:48.484Z,1.23
2018-09-09T13:19:45.881Z,1.20
2018-09-09T13:24:43.295Z,1.60
2018-09-09T13:29:40.720Z,1.10
2018-09-09T13:34:38.126Z,1.43
2018-09-09T13:39:41.317Z,1.10
2018-09-09T13:44:39.244Z,0.97
2018-09-09T13:49:37.132Z,1.07
2018-09-09T13:54:34.539Z,1.20
2018-09-09T13:59:32.243Z,0.87
2018-09-09T14:04:29.668Z,1.20
2018-09-09T14:09:33.435Z,1.50
2018-09-09T14:14:31.252Z,1.17
2018-09-09T14:19:28.652Z,1.37
2018-09-09T14:24:26.067Z,1.37
2018-09-09T14:29:23.474Z,1.37
2018-09-09T14:34:20.965Z,1.30
2018-09-09T14:39:18.379Z,1.00
2018-09-09T14:44:15.786Z,1.90
2018-09-09T14:49:13.208Z,1.50
2018-09-09T14:54:10.607Z,1.60
2018-09-09T14:59:08.044Z,1.70
2018-09-09T15:04:05.487Z,1.27
2018-09-09T15:09:03.712Z,1.17
2018-09-09T15:14:01.099Z,1.27
2018-09-09T15:18:58.510Z,1.43
2018-09-09T15:23:55.890Z,1.30
2018-09-09T15:28:53.411Z,1.30
2018-09-09T15:33:51.195Z,1.40
2018-09-09T15:38:48.599Z,1.17
2018-09-09T15:43:46.018Z,1.10
2018-09-09T15:48:43.418Z,1.30
2018-09-09T15:53:40.834Z,0.90
2018-09-09T15:58:38.255Z,0.90
2018-09-09T16:03:35.688Z,0.80
2018-09-09T16:08:33.135Z,1.10
2018-09-09T16:13:30.540Z,0.90
2018-09-09T16:18:27.932Z,1.00
2018-09-09T16:23:25.369Z,1.10
2018-09-09T16:28:22.776Z,0.90
2018-09-09T16:33:20.191Z,1.30
2018-09-09T16:38:17.591Z,1.20
2018-09-09T16:43:14.988Z,1.03
2018-09-09T16:48:12.423Z,1.00
2018-09-09T16:53:09.826Z,1.00
2018-09-09T16:58:07.492Z,0.87
2018-09-09T17:03:04.939Z,1.27
2018-09-09T17:08:03.215Z,0.73
2018-09-09T17:13:00.636Z,1.00
2018-09-09T17:17:58.071Z,0.80
2018-09-09T17:22:55.500Z,1.10
2018-09-09T17:27:52.914Z,0.70
2018-09-09T17:32:50.304Z,1.33
2018-09-09T17:37:47.732Z,1.10
2018-09-09T17:42:45.193Z,1.27
2018-09-09T17:47:42.602Z,1.13
2018-09-09T17:52:40.016Z,1.07
2018-09-09T17:57:44.161Z,1.23
2018-09-09T18:02:41.587Z,1.20
2018-09-09T18:07:39.006Z,2.07
2018-09-09T18:12:36.539Z,1.53
2018-09-09T18:17:34.065Z,1.50
2018-09-09T18:22:31.423Z,1.23
2018-09-09T18:27:28.872Z,1.10
2018-09-09T18:32:26.292Z,1.93
2018-09-09T18:37:23.667Z,1.73
2018-09-09T18:42:21.042Z,1.40
2018-09-09T18:47:18.410Z,1.90
2018-09-09T18:52:15.819Z,1.43
2018-09-09T18:57:13.287Z,1.40
2018-09-09T19:02:10.683Z,1.97
2018-09-09T19:07:08.089Z,1.80
2018-09-09T19:12:05.486Z,2.53
2018-09-09T19:17:03.216Z,2.10
2018-09-09T19:22:00.681Z,1.97
2018-09-09T19:26:58.040Z,1.70
2018-09-09T19:31:55.461Z,1.90
2018-09-09T19:36:52.957Z,2.10
2018-09-09T19:41:50.339Z,2.60
2018-09-09T19:46:47.756Z,1.83
2018-09-09T19:51:45.168Z,2.57
2018-09-09T19:56:42.579Z,2.20
2018-09-09T20:01:40.200Z,2.87
2018-09-09T20:06:37.597Z,2.30
2018-09-09T20:11:35.031Z,2.57
2018-09-09T20:16:32.448Z,3.10
2018-09-09T20:21:29.883Z,2.97
2018-09-09T20:26:27.312Z,2.57
2018-09-09T20:31:24.712Z,3.30
2018-09-09T20:36:22.333Z,2.50
2018-09-09T20:41:19.762Z,3.13
2018-09-09T20:46:17.152Z,2.77
2018-09-09T20:51:14.561Z,2.93
2018-09-09T20:56:11.952Z,3.20
2018-09-09T21:01:09.347Z,3.77
2018-09-09T21:06:06.759Z,3.57
2018-09-09T21:11:04.166Z,4.30
2018-09-09T21:16:01.547Z,3.30
2018-09-09T21:20:58.922Z,3.90
2018-09-09T21:25:56.456Z,3.87
2018-09-09T21:30:53.800Z,3.10
2018-09-09T21:35:51.719Z,3.50
2018-09-09T21:40:49.204Z,3.27
2018-09-09T21:45:46.587Z,3.17
2018-09-09T21:50:43.981Z,3.10
2018-09-09T21:55:42.312Z,3.50
2018-09-09T22:00:45.324Z,3.70
2018-09-09T22:05:42.755Z,3.20
2018-09-09T22:10:40.144Z,3.27
2018-09-09T22:15:37.535Z,2.90
2018-09-09T22:20:34.918Z,2.90
2018-09-09T22:25:32.301Z,2.90
2018-09-09T22:30:29.704Z,2.93
2018-09-09T22:35:27.367Z,2.57
2018-09-09T22:40:24.807Z,3.23
2018-09-09T22:45:22.183Z,2.90
2018-09-09T22:50:19.563Z,3.13
2018-09-09T22:55:16.982Z,2.93
2018-09-09T23:00:14.395Z,3.40
2018-09-09T23:05:11.775Z,2.90
2018-09-09T23:10:10.222Z,2.90
2018-09-09T23:15:07.642Z,2.83
2018-09-09T23:20:05.092Z,2.57
2018-09-09T23:25:02.483Z,2.70
2018-09-09T23:29:59.858Z,2.60
2018-09-09T23:34:57.246Z,2.33
2018-09-09T23:39:55.779Z,2.50
2018-09-09T23:44:53.263Z,2.13
2018-09-09T23:49:50.651Z,2.13
2018-09-09T23:54:48.029Z,2.50
2018-09-09T23:59:45.411Z,2.20
